Time;durP1;ratioP1;P1;durP2;ratioP2;P2;SDS_P1;SDS_P2;PMS_P1;PMS_P2;Temp;Humidity;BMP_temperature;BMP_pressure;BME280_temperature;BME280_humidity;BME280_pressure;Samples;Min_cycle;Max_cycle;Signal;HPM_P1;HPM_P2
2022/07/01 00:01:14;;;;;;;5.50;4.70;;;17.00;99.90;;;;;;4997038;28;20540;-79
2022/07/01 00:03:48;;;;;;;6.73;5.10;;;16.90;99.90;;;;;;4987861;28;20469;-80
2022/07/01 00:06:15;;;;;;;5.57;4.27;;;16.90;99.90;;;;;;4993274;28;20559;-78
2022/07/01 00:08:42;;;;;;;5.50;5.00;;;16.90;99.90;;;;;;4994277;28;20476;-79
2022/07/01 00:11:13;;;;;;;5.83;5.33;;;16.90;99.90;;;;;;4994979;28;20471;-79
2022/07/01 00:13:40;;;;;;;6.10;5.13;;;16.90;99.90;;;;;;4992767;28;20476;-78
2022/07/01 00:16:07;;;;;;;6.10;5.10;;;16.90;99.90;;;;;;4995838;28;20573;-82
2022/07/01 00:18:33;;;;;;;5.57;4.87;;;16.90;99.90;;;;;;4993175;28;20461;-79
2022/07/01 00:21:00;;;;;;;5.57;5.07;;;16.80;99.90;;;;;;4996420;28;20527;-80
2022/07/01 00:23:27;;;;;;;5.70;5.10;;;16.80;99.90;;;;;;4993665;28;20494;-79
2022/07/01 00:25:54;;;;;;;6.03;5.43;;;16.80;99.90;;;;;;4995435;28;20498;-78
2022/07/01 00:28:22;;;;;;;5.90;5.30;;;16.90;99.90;;;;;;4993688;28;20493;-79
2022/07/01 00:30:49;;;;;;;6.80;5.10;;;16.90;99.90;;;;;;4995030;28;20488;-79
2022/07/01 00:33:17;;;;;;;7.23;6.10;;;16.80;99.90;;;;;;4994838;28;20501;-80
2022/07/01 00:35:43;;;;;;;9.00;6.60;;;16.80;99.90;;;;;;4995747;28;20509;-81
2022/07/01 00:38:11;;;;;;;7.17;6.03;;;16.90;99.90;;;;;;4995095;28;20455;-80
2022/07/01 00:40:38;;;;;;;11.27;7.87;;;16.90;99.90;;;;;;4996273;28;20459;-79
2022/07/01 00:43:04;;;;;;;9.47;7.90;;;16.90;99.90;;;;;;4994548;28;20459;-81
2022/07/01 00:45:33;;;;;;;9.67;7.50;;;16.90;99.90;;;;;;4995297;28;20485;-80
2022/07/01 00:48:00;;;;;;;10.80;8.93;;;16.80;99.90;;;;;;4993824;28;20905;-79
2022/07/01 00:50:27;;;;;;;9.23;7.10;;;16.70;99.90;;;;;;4994068;28;20490;-79
2022/07/01 00:52:54;;;;;;;11.27;9.40;;;16.80;99.90;;;;;;4994194;28;20560;-80
2022/07/01 00:55:21;;;;;;;10.00;8.17;;;16.80;99.90;;;;;;4994714;28;20493;-79
2022/07/01 00:57:48;;;;;;;9.30;8.30;;;16.80;99.90;;;;;;4993128;28;20468;-80
2022/07/01 01:00:18;;;;;;;11.97;9.80;;;16.80;99.90;;;;;;4992982;28;20497;-79
2022/07/01 01:02:47;;;;;;;12.20;10.20;;;16.70;99.90;;;;;;4994341;28;20479;-77
2022/07/01 01:05:13;;;;;;;12.20;9.97;;;16.70;99.90;;;;;;4994328;28;20454;-77
2022/07/01 01:07:42;;;;;;;13.20;11.30;;;16.70;99.90;;;;;;4993697;28;20484;-79
2022/07/01 01:10:11;;;;;;;14.80;12.10;;;16.70;99.90;;;;;;4993135;28;20541;-80
2022/07/01 01:12:37;;;;;;;16.67;13.33;;;16.60;99.90;;;;;;4994229;28;20563;-79
2022/07/01 01:15:05;;;;;;;14.20;12.70;;;16.70;99.90;;;;;;4992948;28;21164;-82
2022/07/01 01:17:32;;;;;;;14.13;12.00;;;16.70;99.90;;;;;;5006929;28;20468;-81
2022/07/01 01:20:01;;;;;;;14.07;12.47;;;16.60;99.90;;;;;;4994986;28;20816;-80
2022/07/01 01:22:29;;;;;;;14.20;12.30;;;16.70;99.90;;;;;;4995281;28;20458;-82
2022/07/01 01:24:58;;;;;;;15.10;12.97;;;16.70;99.90;;;;;;4993904;28;20541;-81
2022/07/01 01:27:25;;;;;;;16.53;13.40;;;16.60;99.90;;;;;;4993421;28;20504;-79
2022/07/01 01:29:52;;;;;;;16.30;13.40;;;16.60;99.90;;;;;;5011199;28;20966;-79
2022/07/01 01:32:19;;;;;;;17.13;13.23;;;16.60;99.90;;;;;;5012755;28;20465;-80
2022/07/01 01:34:46;;;;;;;16.40;12.30;;;16.60;99.90;;;;;;4993510;28;20546;-79
2022/07/01 01:37:12;;;;;;;17.23;12.50;;;16.60;99.90;;;;;;4994917;28;20512;-81
2022/07/01 01:39:41;;;;;;;14.53;11.30;;;16.60;99.90;;;;;;4995290;28;20544;-82
2022/07/01 01:42:08;;;;;;;13.70;12.07;;;16.70;99.90;;;;;;4995312;28;20458;-83
2022/07/01 01:44:35;;;;;;;13.67;11.17;;;16.70;99.90;;;;;;4994331;28;20454;-79
2022/07/01 01:47:04;;;;;;;12.37;10.67;;;16.70;99.90;;;;;;4994489;28;20478;-79
2022/07/01 01:49:31;;;;;;;11.23;9.60;;;16.70;99.90;;;;;;4994938;28;20516;-79
2022/07/01 01:51:59;;;;;;;13.17;9.70;;;16.70;99.90;;;;;;4995861;28;21153;-77
2022/07/01 01:54:26;;;;;;;12.37;10.47;;;16.80;99.90;;;;;;4994347;28;20493;-79
2022/07/01 01:56:54;;;;;;;12.93;9.77;;;16.70;99.90;;;;;;4993183;28;20500;-79
2022/07/01 01:59:21;;;;;;;11.60;9.57;;;16.70;99.90;;;;;;4992316;28;20529;-80
2022/07/01 02:01:48;;;;;;;12.00;10.33;;;16.70;99.90;;;;;;4995174;28;20482;-82
2022/07/01 02:04:15;;;;;;;16.83;11.60;;;16.70;99.90;;;;;;4994375;28;20458;-83
2022/07/01 02:06:42;;;;;;;13.77;11.53;;;16.70;99.90;;;;;;4996712;28;20479;-83
2022/07/01 02:09:09;;;;;;;15.17;11.97;;;16.70;99.90;;;;;;4995656;28;20997;-80
2022/07/01 02:11:36;;;;;;;14.60;11.50;;;16.70;99.90;;;;;;4998468;28;20457;-79
2022/07/01 02:14:04;;;;;;;13.30;10.90;;;16.70;99.90;;;;;;4998615;28;20461;-82
2022/07/01 02:16:31;;;;;;;18.73;12.93;;;16.70;99.90;;;;;;4996100;28;20916;-79
2022/07/01 02:18:58;;;;;;;16.57;12.50;;;16.70;99.90;;;;;;4989725;28;20816;-79
2022/07/01 02:21:25;;;;;;;13.67;11.17;;;16.70;99.90;;;;;;4992494;28;20530;-79
2022/07/01 02:23:53;;;;;;;13.67;12.07;;;16.60;99.90;;;;;;4992931;28;20487;-81
2022/07/01 02:26:20;;;;;;;16.63;11.10;;;16.70;99.90;;;;;;4993732;28;20473;-80
2022/07/01 02:28:47;;;;;;;13.90;11.60;;;16.70;99.90;;;;;;4993380;28;21052;-80
2022/07/01 02:31:15;;;;;;;13.70;10.23;;;16.70;99.90;;;;;;4993411;28;20471;-79
2022/07/01 02:33:42;;;;;;;12.17;10.80;;;16.70;99.90;;;;;;4991718;28;20531;-80
2022/07/01 02:36:09;;;;;;;12.27;10.20;;;16.70;99.90;;;;;;4993335;28;20534;-80
2022/07/01 02:38:36;;;;;;;10.90;9.80;;;16.70;99.90;;;;;;4978166;28;20472;-78
2022/07/01 02:41:02;;;;;;;11.60;9.87;;;16.70;99.90;;;;;;4989119;28;20546;-80
2022/07/01 02:43:29;;;;;;;10.80;9.40;;;16.70;99.90;;;;;;4991912;28;20490;-78
2022/07/01 02:45:57;;;;;;;14.43;11.27;;;16.70;99.90;;;;;;4992056;28;20572;-79
2022/07/01 02:48:25;;;;;;;12.40;10.17;;;16.60;99.90;;;;;;4991754;28;20454;-79
2022/07/01 02:50:52;;;;;;;12.87;9.67;;;16.60;99.90;;;;;;4993571;28;20462;-81
2022/07/01 02:53:19;;;;;;;15.50;10.03;;;16.50;99.90;;;;;;4992460;28;20485;-79
2022/07/01 02:55:46;;;;;;;11.50;9.20;;;16.50;99.90;;;;;;4992633;28;20863;-78
2022/07/01 02:58:13;;;;;;;10.07;9.07;;;16.50;99.90;;;;;;4992234;28;20488;-81
2022/07/01 03:00:39;;;;;;;9.77;8.10;;;16.50;99.90;;;;;;4993025;28;20478;-83
2022/07/01 03:03:06;;;;;;;9.03;8.03;;;16.50;99.90;;;;;;4991122;28;20462;-82
2022/07/01 03:05:35;;;;;;;11.63;9.10;;;16.50;99.90;;;;;;4992658;28;20479;-80
2022/07/01 03:08:01;;;;;;;10.63;8.07;;;16.40;99.90;;;;;;4992725;28;20536;-81
2022/07/01 03:10:28;;;;;;;12.87;8.07;;;16.30;99.90;;;;;;4994140;28;20465;-78
2022/07/01 03:12:55;;;;;;;11.73;8.20;;;16.30;99.90;;;;;;4992200;28;20497;-79
2022/07/01 03:15:22;;;;;;;11.60;8.10;;;16.20;99.90;;;;;;5004867;28;20508;-76
2022/07/01 03:17:50;;;;;;;8.60;6.30;;;16.30;99.90;;;;;;4997087;28;20461;-76
2022/07/01 03:20:18;;;;;;;7.83;6.77;;;16.60;99.90;;;;;;5008600;28;20458;-76
2022/07/01 03:22:49;;;;;;;9.20;7.47;;;16.70;99.90;;;;;;4993094;28;21046;-76
2022/07/01 03:25:22;;;;;;;12.60;7.77;;;16.80;99.90;;;;;;4995237;28;20457;-77
2022/07/01 03:27:49;;;;;;;12.23;7.93;;;16.80;99.90;;;;;;4996008;28;20438;-76
2022/07/01 03:30:17;;;;;;;11.67;7.50;;;16.90;99.90;;;;;;5000646;28;20468;-76
2022/07/01 03:32:45;;;;;;;10.63;7.67;;;16.80;99.90;;;;;;4996657;28;20890;-80
2022/07/01 03:38:09;;;;;;;8.63;6.90;;;16.70;99.90;;;;;;4936944;29;20484;-76
2022/07/01 03:40:36;;;;;;;11.27;7.50;;;16.70;99.90;;;;;;4983314;28;20466;-76
2022/07/01 03:43:03;;;;;;;10.50;6.30;;;16.60;99.90;;;;;;4996555;28;20481;-79
2022/07/01 03:45:31;;;;;;;11.40;7.33;;;16.60;99.90;;;;;;4997612;28;20485;-76
2022/07/01 03:47:58;;;;;;;9.33;6.60;;;16.50;99.90;;;;;;4997515;28;20457;-77
2022/07/01 03:50:26;;;;;;;11.13;7.63;;;16.40;99.90;;;;;;4991574;28;20546;-80
2022/07/01 03:54:29;;;;;;;9.00;7.43;;;16.40;99.90;;;;;;4995959;28;20552;-80
2022/07/01 03:55:42;;;;;;;9.83;7.23;;;16.30;99.90;;;;;;4996830;28;20911;-80
2022/07/01 03:58:09;;;;;;;10.13;6.70;;;16.30;99.90;;;;;;4997795;28;20457;-78
2022/07/01 04:00:37;;;;;;;12.73;8.43;;;16.30;99.90;;;;;;4998055;28;20457;-79
2022/07/01 04:03:05;;;;;;;10.53;6.27;;;16.30;99.90;;;;;;4998031;28;20546;-79
2022/07/01 04:05:34;;;;;;;9.03;7.07;;;16.30;99.90;;;;;;4998288;28;20481;-81
2022/07/01 04:08:01;;;;;;;10.43;6.73;;;16.40;99.90;;;;;;4997774;28;20455;-79
2022/07/01 04:10:28;;;;;;;12.30;7.13;;;16.40;99.90;;;;;;4996327;28;20960;-82
2022/07/01 04:12:56;;;;;;;12.10;7.00;;;16.50;99.90;;;;;;4995165;28;20565;-79
2022/07/01 04:15:23;;;;;;;10.77;6.43;;;16.50;99.90;;;;;;4995619;28;20482;-80
2022/07/01 04:17:50;;;;;;;9.60;6.90;;;16.50;99.90;;;;;;4991993;28;20573;-81
2022/07/01 04:20:17;;;;;;;12.40;7.60;;;16.50;99.90;;;;;;4995818;28;20550;-80
2022/07/01 04:22:43;;;;;;;12.97;7.37;;;16.50;99.90;;;;;;4988020;28;20545;-84
2022/07/01 04:25:10;;;;;;;10.73;7.50;;;16.50;99.90;;;;;;5000487;28;20524;-78
2022/07/01 04:27:37;;;;;;;8.10;7.23;;;16.50;99.90;;;;;;4997145;28;20552;-81
2022/07/01 04:30:06;;;;;;;10.30;7.33;;;16.50;99.90;;;;;;5037823;22;21031;-83
2022/07/01 04:32:33;;;;;;;12.37;9.37;;;16.50;99.90;;;;;;5018541;28;20976;-83
2022/07/01 04:35:00;;;;;;;12.07;9.43;;;16.40;99.90;;;;;;5017271;28;20464;-83
2022/07/01 04:37:27;;;;;;;10.87;7.77;;;16.50;99.90;;;;;;5008686;28;20478;-84
2022/07/01 04:39:54;;;;;;;10.90;8.00;;;16.50;99.90;;;;;;5008270;28;21529;-84
2022/07/01 04:42:21;;;;;;;8.23;7.30;;;16.50;99.90;;;;;;5008765;28;20486;-84
2022/07/01 04:44:48;;;;;;;14.30;8.27;;;16.50;99.90;;;;;;5014045;28;20500;-85
2022/07/01 04:47:17;;;;;;;9.20;7.20;;;16.40;99.90;;;;;;5026787;28;20481;-84
2022/07/01 04:49:43;;;;;;;9.23;6.93;;;16.50;99.90;;;;;;5025360;28;20496;-84
2022/07/01 04:52:10;;;;;;;8.07;7.03;;;16.50;99.90;;;;;;5007485;28;20466;-82
2022/07/01 04:54:37;;;;;;;10.27;8.27;;;16.40;99.90;;;;;;5026265;28;20915;-85
2022/07/01 04:57:04;;;;;;;8.53;6.63;;;16.50;99.90;;;;;;5010422;28;20522;-83
2022/07/01 04:59:31;;;;;;;8.33;6.00;;;16.50;99.90;;;;;;4998570;28;20482;-82
2022/07/01 05:01:59;;;;;;;11.07;7.53;;;16.50;99.90;;;;;;5014130;28;20488;-83
2022/07/01 05:04:28;;;;;;;10.60;7.50;;;16.60;99.90;;;;;;5003035;28;20456;-84
2022/07/01 05:06:54;;;;;;;8.33;6.87;;;16.60;99.90;;;;;;5002546;28;20459;-82
2022/07/01 05:09:31;;;;;;;10.30;7.47;;;16.60;99.90;;;;;;5008518;28;20472;-82
2022/07/01 05:11:58;;;;;;;8.97;7.40;;;16.60;99.90;;;;;;5000962;28;21051;-81
2022/07/01 05:14:24;;;;;;;10.77;5.97;;;16.60;99.90;;;;;;5007321;28;21135;-83
2022/07/01 05:16:51;;;;;;;8.70;6.10;;;16.50;99.90;;;;;;5018895;28;21001;-82
2022/07/01 05:22:07;;;;;;;12.10;6.67;;;16.50;99.90;;;;;;5015552;28;20455;-82
2022/07/01 05:24:34;;;;;;;9.63;7.00;;;16.60;99.90;;;;;;5005885;28;20489;-82
2022/07/01 05:27:04;;;;;;;7.00;6.27;;;16.50;99.90;;;;;;4999896;28;20531;-84
2022/07/01 05:29:31;;;;;;;10.27;7.43;;;16.50;99.90;;;;;;4999860;28;20578;-84
2022/07/01 05:31:58;;;;;;;16.17;7.03;;;16.60;99.90;;;;;;5001108;28;20458;-84
2022/07/01 05:34:25;;;;;;;8.20;6.60;;;16.50;99.90;;;;;;5000029;28;20473;-82
2022/07/01 05:36:52;;;;;;;10.30;7.43;;;16.60;99.90;;;;;;5000298;28;20485;-81
2022/07/01 05:39:20;;;;;;;11.40;8.20;;;16.70;99.90;;;;;;4997092;28;20478;-83
2022/07/01 05:41:47;;;;;;;10.67;7.37;;;16.70;99.90;;;;;;5008756;28;20555;-83
2022/07/01 05:44:14;;;;;;;11.00;7.80;;;16.70;99.90;;;;;;5005120;28;20461;-84
2022/07/01 05:46:41;;;;;;;9.90;7.03;;;16.80;99.90;;;;;;5001472;28;20504;-81
2022/07/01 05:49:08;;;;;;;9.20;7.07;;;16.80;99.90;;;;;;5000362;28;20450;-84
2022/07/01 05:51:35;;;;;;;10.37;6.93;;;16.80;99.90;;;;;;5009593;28;20903;-82
2022/07/01 05:54:01;;;;;;;13.73;6.33;;;16.80;99.90;;;;;;5008970;28;20466;-82
2022/07/01 05:56:30;;;;;;;8.97;6.80;;;16.80;99.90;;;;;;5002706;28;20583;-82
2022/07/01 05:58:57;;;;;;;8.43;6.50;;;16.80;99.90;;;;;;5006810;28;20486;-82
2022/07/01 06:01:23;;;;;;;8.00;6.17;;;16.80;99.90;;;;;;5005361;28;20504;-81
2022/07/01 06:03:50;;;;;;;8.00;6.37;;;16.80;99.90;;;;;;5001345;28;20470;-82
2022/07/01 06:06:19;;;;;;;9.40;6.53;;;16.90;99.90;;;;;;5002460;28;20544;-83
2022/07/01 06:08:46;;;;;;;12.57;7.27;;;16.90;99.90;;;;;;5002032;28;20469;-82
2022/07/01 06:11:12;;;;;;;10.07;6.67;;;16.90;99.90;;;;;;5001181;28;20509;-82
2022/07/01 06:13:40;;;;;;;8.00;6.63;;;16.90;99.90;;;;;;5012803;28;20497;-84
2022/07/01 06:16:07;;;;;;;9.30;6.60;;;17.00;99.90;;;;;;5011934;28;20458;-82
2022/07/01 06:18:34;;;;;;;7.37;6.40;;;17.00;99.90;;;;;;4992344;28;20643;-82
2022/07/01 06:21:01;;;;;;;8.33;6.43;;;17.10;99.90;;;;;;4994789;28;21111;-80
2022/07/01 06:23:28;;;;;;;7.60;6.30;;;17.10;99.90;;;;;;5014485;28;20477;-80
2022/07/01 06:25:55;;;;;;;9.57;6.57;;;17.20;99.90;;;;;;4998926;28;20459;-79
2022/07/01 06:28:22;;;;;;;9.37;6.80;;;17.20;99.90;;;;;;4997675;28;20465;-80
2022/07/01 06:30:54;;;;;;;9.20;6.13;;;17.20;99.90;;;;;;4997043;28;20488;-82
2022/07/01 06:33:21;;;;;;;9.73;7.43;;;17.30;99.90;;;;;;4996114;28;20458;-81
2022/07/01 06:35:48;;;;;;;7.97;6.33;;;17.20;99.90;;;;;;4995409;28;20549;-80
2022/07/01 06:38:15;;;;;;;8.13;6.97;;;17.30;99.90;;;;;;4994901;28;20493;-82
2022/07/01 06:40:42;;;;;;;9.17;6.60;;;17.30;99.90;;;;;;4995426;28;20497;-82
2022/07/01 06:43:09;;;;;;;12.60;6.60;;;17.20;99.90;;;;;;4996446;28;20546;-80
2022/07/01 06:45:36;;;;;;;11.47;10.00;;;17.30;99.90;;;;;;4997083;28;20475;-80
2022/07/01 06:48:05;;;;;;;17.83;10.70;;;17.30;99.90;;;;;;5001860;28;20460;-80
2022/07/01 06:50:31;;;;;;;14.30;12.03;;;17.20;99.90;;;;;;5016044;28;20457;-80
2022/07/01 06:52:58;;;;;;;11.20;9.57;;;17.40;99.90;;;;;;5010467;28;20470;-81
2022/07/01 06:55:25;;;;;;;10.80;9.70;;;17.60;99.90;;;;;;4997057;28;21021;-80
2022/07/01 06:57:52;;;;;;;14.20;10.67;;;17.90;99.90;;;;;;4997391;28;20541;-83
2022/07/01 07:00:19;;;;;;;11.53;10.00;;;18.20;99.90;;;;;;4998954;28;20471;-80
2022/07/01 07:02:46;;;;;;;11.67;9.50;;;18.40;99.90;;;;;;4997710;28;20533;-81
2022/07/01 07:05:14;;;;;;;11.63;10.00;;;18.50;99.90;;;;;;5005032;28;20584;-81
2022/07/01 07:07:41;;;;;;;13.00;9.20;;;18.40;99.90;;;;;;5018927;28;20481;-81
2022/07/01 07:10:09;;;;;;;11.30;9.93;;;18.40;99.90;;;;;;5019186;28;20850;-79
2022/07/01 07:12:36;;;;;;;12.90;9.17;;;18.40;99.90;;;;;;5018724;28;20483;-81
2022/07/01 07:15:03;;;;;;;10.70;9.00;;;18.40;99.90;;;;;;5002433;28;20504;-83
2022/07/01 07:17:30;;;;;;;12.60;9.60;;;18.20;99.90;;;;;;4998352;28;20577;-80
2022/07/01 07:19:57;;;;;;;12.30;10.27;;;18.20;99.90;;;;;;5002134;28;20476;-81
2022/07/01 07:22:26;;;;;;;10.10;8.30;;;18.10;99.90;;;;;;5001228;28;20461;-81
2022/07/01 07:24:53;;;;;;;10.33;7.80;;;18.10;99.90;;;;;;4993225;28;20510;-82
2022/07/01 07:27:20;;;;;;;9.20;6.57;;;18.30;99.90;;;;;;5000293;28;20459;-79
2022/07/01 07:29:47;;;;;;;8.70;5.40;;;18.20;99.90;;;;;;4999692;28;20491;-80
2022/07/01 07:32:14;;;;;;;8.43;5.10;;;18.20;99.90;;;;;;4980013;28;20513;-79
2022/07/01 07:34:41;;;;;;;8.23;6.87;;;18.30;99.90;;;;;;4991079;28;20502;-81
2022/07/01 07:37:08;;;;;;;6.27;4.30;;;18.50;99.90;;;;;;4999744;28;20516;-82
2022/07/01 07:39:36;;;;;;;7.27;6.00;;;18.80;99.90;;;;;;5000721;28;20484;-80
2022/07/01 07:42:04;;;;;;;7.57;6.77;;;19.00;99.90;;;;;;5000708;28;20483;-82
2022/07/01 07:44:31;;;;;;;9.67;5.77;;;19.20;99.90;;;;;;5002244;28;20511;-83
2022/07/01 07:46:58;;;;;;;6.97;6.20;;;19.50;99.90;;;;;;5004326;28;20708;-82
2022/07/01 07:49:26;;;;;;;14.10;10.20;;;19.60;99.90;;;;;;5002765;28;21005;-82
2022/07/01 07:51:53;;;;;;;14.43;6.30;;;19.50;99.90;;;;;;5004253;28;20512;-84
2022/07/01 07:54:20;;;;;;;6.77;5.87;;;19.30;99.90;;;;;;5005701;28;20460;-83
2022/07/01 07:56:48;;;;;;;8.47;6.30;;;19.20;99.90;;;;;;5006787;28;20489;-84
2022/07/01 07:59:15;;;;;;;12.27;6.30;;;19.20;99.90;;;;;;5006065;28;20470;-82
2022/07/01 08:01:42;;;;;;;7.60;6.63;;;19.10;99.90;;;;;;5005166;28;20455;-82
2022/07/01 08:04:09;;;;;;;6.50;5.80;;;19.10;99.90;;;;;;5006472;28;20458;-83
2022/07/01 08:06:36;;;;;;;6.40;5.50;;;19.20;99.90;;;;;;5008672;28;20473;-83
2022/07/01 08:09:03;;;;;;;7.97;5.50;;;19.20;99.90;;;;;;5010365;28;20449;-87
2022/07/01 08:11:30;;;;;;;9.50;6.50;;;19.30;99.90;;;;;;5010476;28;20497;-85
2022/07/01 08:13:59;;;;;;;7.27;5.67;;;19.50;99.90;;;;;;5009352;28;20446;-89
2022/07/01 08:16:26;;;;;;;5.87;5.33;;;19.50;99.90;;;;;;5020115;28;20437;-87
2022/07/01 08:18:52;;;;;;;10.90;5.50;;;19.50;99.90;;;;;;5002935;28;20584;-82
2022/07/01 08:21:19;;;;;;;6.30;5.17;;;19.50;99.90;;;;;;5019710;28;20489;-85
2022/07/01 08:23:46;;;;;;;6.70;5.23;;;19.40;99.90;;;;;;5019675;28;20489;-81
2022/07/01 08:26:14;;;;;;;5.20;4.70;;;19.30;99.90;;;;;;4999908;28;20486;-81
2022/07/01 08:28:41;;;;;;;6.23;4.93;;;19.20;99.90;;;;;;5000226;28;20821;-81
2022/07/01 08:31:09;;;;;;;5.83;5.23;;;19.20;99.90;;;;;;5001327;28;20546;-82
2022/07/01 08:33:41;;;;;;;7.43;5.20;;;19.20;99.90;;;;;;5019067;28;20547;-81
2022/07/01 08:36:10;;;;;;;6.47;4.90;;;19.10;99.90;;;;;;4999921;28;20523;-83
2022/07/01 08:38:37;;;;;;;5.60;5.07;;;19.10;99.90;;;;;;5001735;28;20489;-81
2022/07/01 08:41:04;;;;;;;5.80;4.20;;;19.00;99.90;;;;;;4998155;28;20477;-83
2022/07/01 08:43:31;;;;;;;7.20;4.13;;;19.00;99.90;;;;;;4998961;28;20458;-81
2022/07/01 08:46:01;;;;;;;7.60;4.80;;;18.90;99.90;;;;;;5000797;28;20476;-82
2022/07/01 08:48:29;;;;;;;6.90;4.53;;;18.90;99.90;;;;;;4995126;28;20468;-82
2022/07/01 08:50:56;;;;;;;6.93;3.50;;;19.10;99.90;;;;;;4999097;28;20552;-80
2022/07/01 08:53:23;;;;;;;4.90;3.40;;;19.30;99.90;;;;;;4997666;28;20466;-82
2022/07/01 08:58:36;;;;;;;7.17;4.50;;;19.50;99.90;;;;;;5002487;28;20693;-83
2022/07/01 09:01:14;;;;;;;7.90;4.23;;;19.70;99.90;;;;;;5007526;28;20485;-80
2022/07/01 09:03:44;;;;;;;5.53;3.00;;;19.90;99.90;;;;;;4999745;28;20457;-82
2022/07/01 09:06:15;;;;;;;5.07;3.30;;;20.30;99.90;;;;;;5013493;28;20452;-81
2022/07/01 09:08:42;;;;;;;4.40;3.70;;;20.60;99.90;;;;;;5002336;28;20486;-81
2022/07/01 09:11:14;;;;;;;5.03;4.30;;;20.70;99.90;;;;;;5000926;28;20517;-83
2022/07/01 09:13:41;;;;;;;7.00;4.97;;;20.60;99.90;;;;;;5000159;28;20506;-80
2022/07/01 09:16:13;;;;;;;5.07;4.47;;;20.50;99.90;;;;;;5001385;28;20529;-83
2022/07/01 09:18:40;;;;;;;5.13;4.00;;;20.50;99.90;;;;;;5000351;28;20873;-84
2022/07/01 09:21:14;;;;;;;5.03;4.30;;;20.60;99.90;;;;;;5004863;28;20473;-83
2022/07/01 09:23:41;;;;;;;5.77;4.13;;;20.90;99.90;;;;;;5017064;28;20446;-82
2022/07/01 09:26:08;;;;;;;5.30;4.80;;;21.20;99.90;;;;;;5002061;28;20557;-84
2022/07/01 09:28:35;;;;;;;4.50;4.10;;;21.10;99.90;;;;;;4999404;28;20595;-82
2022/07/01 09:31:02;;;;;;;5.17;4.57;;;20.90;99.90;;;;;;5004636;28;20501;-80
2022/07/01 09:33:29;;;;;;;8.17;4.20;;;20.70;99.90;;;;;;5001665;28;20537;-81
2022/07/01 09:35:59;;;;;;;6.20;4.00;;;20.40;99.90;;;;;;4998444;28;20451;-84
2022/07/01 09:38:27;;;;;;;5.00;3.60;;;20.10;99.90;;;;;;4996801;28;20545;-81
2022/07/01 09:40:56;;;;;;;6.23;3.13;;;19.90;99.90;;;;;;5000713;28;20478;-82
2022/07/01 09:43:25;;;;;;;4.50;2.70;;;19.90;99.90;;;;;;4996690;28;20545;-85
2022/07/01 09:45:57;;;;;;;3.80;2.30;;;20.10;99.90;;;;;;4999407;28;20511;-83
2022/07/01 09:48:26;;;;;;;3.10;1.90;;;20.40;99.90;;;;;;4996693;28;20485;-83
2022/07/01 09:50:53;;;;;;;8.53;1.77;;;20.70;99.90;;;;;;4996309;28;20915;-86
2022/07/01 09:53:21;;;;;;;3.90;1.80;;;21.10;99.90;;;;;;4996025;28;21163;-83
2022/07/01 09:55:49;;;;;;;3.40;1.80;;;21.60;99.90;;;;;;4996260;28;20447;-83
2022/07/01 09:58:16;;;;;;;4.70;2.30;;;21.70;99.90;;;;;;4995680;28;20482;-83
2022/07/01 10:00:44;;;;;;;3.50;2.40;;;21.80;99.90;;;;;;4995827;28;20894;-84
2022/07/01 10:03:11;;;;;;;4.93;1.73;;;22.00;99.90;;;;;;4995625;28;20461;-82
2022/07/01 10:05:44;;;;;;;4.50;2.10;;;21.80;99.90;;;;;;4996675;28;20627;-83
2022/07/01 10:08:46;;;;;;;4.53;2.00;;;21.90;99.90;;;;;;4995168;28;20502;-82
2022/07/01 10:11:37;;;;;;;5.10;1.93;;;21.80;99.90;;;;;;4991778;28;20590;-83
2022/07/01 10:14:05;;;;;;;3.07;2.07;;;21.50;99.90;;;;;;5018762;28;20541;-82
2022/07/01 10:16:32;;;;;;;4.20;2.07;;;21.30;99.90;;;;;;5029387;28;20505;-82
2022/07/01 10:19:00;;;;;;;5.23;2.37;;;21.20;99.90;;;;;;5001253;28;20486;-81
2022/07/01 10:21:28;;;;;;;6.67;2.37;;;21.30;99.90;;;;;;5014378;28;20517;-80
2022/07/01 10:24:12;;;;;;;5.10;2.57;;;21.20;99.90;;;;;;5002533;28;20494;-82
2022/07/01 10:26:41;;;;;;;13.60;9.67;;;21.20;99.90;;;;;;4997207;28;20448;-80
2022/07/01 10:29:30;;;;;;;4.40;2.50;;;21.30;99.90;;;;;;4996610;28;20541;-80
2022/07/01 10:32:02;;;;;;;4.77;2.70;;;21.40;99.90;;;;;;4995063;28;20498;-83
2022/07/01 10:34:36;;;;;;;4.40;2.53;;;21.30;99.90;;;;;;4990378;28;20565;-82
2022/07/01 10:37:08;;;;;;;3.60;1.90;;;21.30;99.90;;;;;;4993375;28;20446;-82
2022/07/01 10:39:57;;;;;;;4.50;2.33;;;21.40;99.90;;;;;;4992218;28;20558;-80
2022/07/01 10:42:31;;;;;;;3.13;1.70;;;21.40;99.90;;;;;;4986682;28;20481;-82
2022/07/01 10:45:02;;;;;;;4.37;1.87;;;21.70;99.90;;;;;;4989634;28;20454;-81
2022/07/01 10:47:29;;;;;;;4.20;1.60;;;22.10;99.90;;;;;;4998938;28;20836;-80
2022/07/01 10:49:59;;;;;;;5.30;1.93;;;22.60;99.90;;;;;;4992228;28;20472;-79
2022/07/01 10:52:28;;;;;;;3.70;1.60;;;23.20;99.90;;;;;;4991657;28;20561;-83
2022/07/01 10:54:57;;;;;;;2.97;1.53;;;23.60;99.90;;;;;;4990579;28;20534;-83
2022/07/01 10:57:34;;;;;;;4.70;1.90;;;23.60;99.90;;;;;;4994634;28;20482;-82
2022/07/01 11:00:32;;;;;;;6.33;2.77;;;23.70;99.90;;;;;;4992192;28;20923;-81
2022/07/01 11:03:11;;;;;;;3.97;2.50;;;23.80;99.90;;;;;;4990034;28;20490;-81
2022/07/01 11:05:40;;;;;;;9.00;2.97;;;23.80;99.90;;;;;;4990124;28;20548;-84
2022/07/01 11:08:09;;;;;;;3.60;2.07;;;23.60;99.90;;;;;;4992293;28;20904;-82
2022/07/01 11:10:36;;;;;;;4.33;1.60;;;23.40;99.90;;;;;;4985072;28;20554;-80
2022/07/01 11:13:04;;;;;;;3.60;1.87;;;23.10;99.90;;;;;;4992074;28;20545;-83
2022/07/01 11:15:32;;;;;;;4.57;1.40;;;23.20;99.90;;;;;;4989263;28;20493;-81
2022/07/01 11:18:00;;;;;;;6.40;2.17;;;23.60;99.90;;;;;;4990393;28;20514;-83
2022/07/01 11:20:30;;;;;;;4.37;1.50;;;23.90;99.90;;;;;;4995445;28;20570;-82
2022/07/01 11:22:57;;;;;;;5.30;1.33;;;24.50;99.90;;;;;;4995476;28;20541;-82
2022/07/01 11:25:26;;;;;;;8.17;2.40;;;24.50;99.90;;;;;;5000301;28;20469;-83
2022/07/01 11:27:53;;;;;;;3.67;1.27;;;24.50;99.90;;;;;;4991788;28;20473;-84
2022/07/01 11:30:22;;;;;;;6.33;1.90;;;24.70;99.90;;;;;;4996193;28;20477;-81
2022/07/01 11:32:51;;;;;;;3.07;1.40;;;24.80;99.90;;;;;;4994576;28;20459;-82
2022/07/01 11:40:54;;;;;;;5.40;1.93;;;24.60;99.90;;;;;;4994190;28;20461;-81
2022/07/01 11:43:22;;;;;;;5.30;1.50;;;24.90;99.90;;;;;;4994149;28;21027;-83
2022/07/01 11:45:51;;;;;;;5.50;1.53;;;24.90;99.90;;;;;;4995103;28;21109;-79
2022/07/01 11:48:35;;;;;;;4.83;1.53;;;24.90;99.90;;;;;;4996989;28;20908;-83
2022/07/01 11:51:06;;;;;;;2.80;1.43;;;24.60;99.90;;;;;;4978216;28;20522;-82
2022/07/01 11:53:33;;;;;;;4.47;1.40;;;24.40;99.90;;;;;;4995365;28;20442;-80
2022/07/01 11:56:00;;;;;;;3.50;1.20;;;25.00;99.90;;;;;;4995154;28;20454;-82
2022/07/01 11:58:48;;;;;;;3.60;1.27;;;25.30;99.90;;;;;;4997153;28;20490;-80
2022/07/01 12:01:24;;;;;;;3.10;1.23;;;26.10;99.90;;;;;;4996632;28;20514;-79
2022/07/01 12:03:51;;;;;;;4.53;1.23;;;26.40;99.90;;;;;;5006363;28;20460;-80
2022/07/01 12:06:19;;;;;;;5.30;1.43;;;26.70;99.90;;;;;;5016314;28;20462;-78
2022/07/01 12:08:47;;;;;;;3.30;1.37;;;26.70;99.90;;;;;;5011185;28;20454;-80
2022/07/01 12:11:14;;;;;;;3.50;1.50;;;26.70;99.90;;;;;;4996435;28;20470;-82
2022/07/01 12:13:41;;;;;;;3.20;1.30;;;27.00;99.90;;;;;;4994368;28;20462;-79
2022/07/01 12:16:12;;;;;;;3.60;1.30;;;26.60;99.90;;;;;;4996836;28;20481;-79
2022/07/01 12:18:51;;;;;;;3.10;1.00;;;26.20;99.90;;;;;;5000240;28;20490;-77
2022/07/01 12:21:19;;;;;;;4.67;1.40;;;26.00;99.90;;;;;;4995395;28;20566;-78
2022/07/01 12:24:11;;;;;;;3.00;1.07;;;25.90;99.90;;;;;;4994667;28;20463;-79
2022/07/01 12:26:52;;;;;;;3.00;1.30;;;25.60;99.90;;;;;;4997941;28;20451;-79
2022/07/01 12:29:21;;;;;;;5.43;1.70;;;25.60;99.90;;;;;;5003079;28;20475;-80
2022/07/01 12:32:01;;;;;;;2.67;1.10;;;25.80;99.90;;;;;;5007183;28;20450;-81
2022/07/01 12:34:43;;;;;;;3.47;1.13;;;25.50;99.90;;;;;;4996875;28;20937;-83
2022/07/01 12:37:13;;;;;;;4.30;1.40;;;25.10;99.90;;;;;;5007431;28;20529;-79
2022/07/01 12:39:48;;;;;;;3.63;1.70;;;24.90;99.90;;;;;;5004273;28;20536;-80
2022/07/01 12:42:26;;;;;;;2.50;1.10;;;25.20;99.90;;;;;;4994759;28;20426;-81
2022/07/01 12:44:58;;;;;;;2.70;1.30;;;26.00;99.90;;;;;;4992387;28;20454;-80
2022/07/01 12:47:30;;;;;;;2.90;1.33;;;25.80;99.90;;;;;;4977987;28;20460;-78
2022/07/01 12:50:15;;;;;;;3.83;1.40;;;25.30;99.90;;;;;;4977751;28;20546;-78
2022/07/01 12:52:46;;;;;;;2.20;1.10;;;24.70;99.90;;;;;;4993302;28;20450;-81
2022/07/01 12:55:21;;;;;;;2.77;0.90;;;24.50;99.90;;;;;;4995289;28;20453;-80
2022/07/01 12:57:53;;;;;;;5.37;1.37;;;24.30;99.90;;;;;;4996656;28;20488;-82
2022/07/01 13:00:22;;;;;;;2.57;1.17;;;23.70;99.90;;;;;;4999242;28;20492;-82
2022/07/01 13:02:54;;;;;;;3.70;1.33;;;23.60;99.90;;;;;;5003817;28;20473;-79